Time;durP1;ratioP1;P1;durP2;ratioP2;P2;SDS_P1;SDS_P2;PMS_P1;PMS_P2;Temp;Humidity;BMP_temperature;BMP_pressure;BME280_temperature;BME280_humidity;BME280_pressure;Samples;Min_cycle;Max_cycle;Signal;HPM_P1;HPM_P2
2021/11/30 00:01:28;;;;;;;7.35;5.92;;;;;;;4.81;72.86;96887.92;1687636;83;21976;-67
2021/11/30 00:03:55;;;;;;;6.53;5.78;;;;;;;4.81;72.72;96894.52;1684869;83;21655;-67
2021/11/30 00:06:22;;;;;;;6.20;5.60;;;;;;;4.81;72.49;96919.53;1670116;85;20903;-67
2021/11/30 00:08:51;;;;;;;6.97;6.28;;;;;;;4.87;72.30;96913.99;1652300;85;20946;-67
2021/11/30 00:11:17;;;;;;;7.00;6.25;;;;;;;4.82;72.01;96915.88;1684938;83;20958;-67
2021/11/30 00:13:44;;;;;;;6.00;5.40;;;;;;;4.84;71.96;96913.87;1686079;83;21148;-67
2021/11/30 00:16:11;;;;;;;6.78;6.17;;;;;;;4.89;71.98;96918.05;1674097;83;21015;-67
2021/11/30 00:18:38;;;;;;;6.85;6.22;;;;;;;4.96;71.76;96915.44;1682488;83;20931;-67
2021/11/30 00:21:08;;;;;;;6.90;6.20;;;;;;;4.97;71.55;96932.88;1676782;83;21019;-67
2021/11/30 00:23:35;;;;;;;6.62;5.40;;;;;;;4.97;71.39;96925.80;1678897;83;20930;-67
2021/11/30 00:26:03;;;;;;;6.40;5.80;;;;;;;4.96;71.52;96939.97;1678040;83;21162;-67
2021/11/30 00:28:30;;;;;;;5.90;5.22;;;;;;;4.93;71.51;96940.35;1681509;83;20930;-67
2021/11/30 00:30:57;;;;;;;6.80;6.10;;;;;;;4.95;71.28;96937.54;1686439;83;21598;-66
2021/11/30 00:33:24;;;;;;;6.12;5.53;;;;;;;4.92;71.26;96946.65;1688216;83;20932;-66
2021/11/30 00:35:51;;;;;;;6.53;5.92;;;;;;;4.96;71.43;96959.72;1668997;83;20954;-67
2021/11/30 00:38:18;;;;;;;6.37;5.78;;;;;;;4.99;71.08;96961.16;1683068;83;21270;-67
2021/11/30 00:40:46;;;;;;;5.83;5.30;;;;;;;4.95;70.84;96958.09;1687847;83;21061;-67
2021/11/30 00:43:20;;;;;;;5.87;5.37;;;;;;;4.94;70.82;96953.84;1682134;83;21560;-68
2021/11/30 00:45:53;;;;;;;5.67;5.10;;;;;;;4.93;70.58;96965.38;1683341;83;21058;-67
2021/11/30 00:48:20;;;;;;;6.08;5.47;;;;;;;4.87;70.81;96961.41;1693434;83;21028;-67
2021/11/30 00:50:45;;;;;;;5.37;4.83;;;;;;;4.87;71.03;96966.19;1692563;83;21168;-68
2021/11/30 00:53:12;;;;;;;5.45;4.95;;;;;;;4.98;70.38;96966.10;1690979;83;21048;-67
2021/11/30 00:55:39;;;;;;;5.45;4.95;;;;;;;4.96;70.20;96971.58;1670808;83;20963;-68
2021/11/30 00:58:06;;;;;;;6.03;4.95;;;;;;;4.92;70.38;96979.58;1693143;83;20950;-67
2021/11/30 01:00:35;;;;;;;5.45;4.95;;;;;;;4.91;70.45;96970.04;1692707;83;21027;-68
2021/11/30 01:03:04;;;;;;;5.97;5.37;;;;;;;4.87;70.44;96977.22;1689724;83;21172;-67
2021/11/30 01:05:31;;;;;;;5.92;5.33;;;;;;;4.88;70.41;96987.55;1691585;83;20986;-68
2021/11/30 01:07:58;;;;;;;6.08;5.47;;;;;;;4.89;70.52;96976.52;1690050;83;21010;-67
2021/11/30 01:10:25;;;;;;;5.45;4.95;;;;;;;4.89;70.61;96983.92;1697559;83;20875;-67
2021/11/30 01:12:51;;;;;;;6.17;5.58;;;;;;;4.89;70.61;96988.37;1689153;83;21087;-68
2021/11/30 01:15:20;;;;;;;6.05;5.45;;;;;;;4.86;70.44;96972.45;1686935;83;21253;-67
2021/11/30 01:17:48;;;;;;;6.53;5.75;;;;;;;4.83;70.60;96996.54;1685503;83;20934;-67
2021/11/30 01:20:15;;;;;;;5.72;5.22;;;;;;;4.85;70.72;96991.06;1692393;83;20938;-67
2021/11/30 01:22:42;;;;;;;5.35;4.85;;;;;;;4.87;70.75;97007.02;1685768;83;21741;-68
2021/11/30 01:25:09;;;;;;;5.25;4.70;;;;;;;4.88;70.62;96994.62;1694497;83;20954;-67
2021/11/30 01:27:36;;;;;;;5.72;5.22;;;;;;;4.89;70.72;97002.36;1688806;83;21031;-67
2021/11/30 01:30:06;;;;;;;4.97;4.50;;;;;;;4.91;70.81;96999.02;1695366;83;21508;-68
2021/11/30 01:32:34;;;;;;;5.20;4.45;;;;;;;4.88;71.70;97012.58;1692625;83;21017;-68
2021/11/30 01:35:01;;;;;;;4.90;4.40;;;;;;;4.97;73.67;97014.06;1687144;83;21017;-68
2021/11/30 01:37:28;;;;;;;4.80;4.20;;;;;;;4.98;72.55;97009.08;1691613;83;21428;-67
2021/11/30 01:39:55;;;;;;;3.62;3.30;;;;;;;4.96;70.17;97026.91;1696645;83;21143;-67
2021/11/30 01:42:21;;;;;;;3.92;2.72;;;;;;;4.94;69.58;97032.89;1701227;83;20949;-67
2021/11/30 01:44:51;;;;;;;2.45;2.25;;;;;;;4.95;68.12;97026.59;1678067;84;21524;-67
2021/11/30 01:47:40;;;;;;;2.70;2.50;;;;;;;4.98;67.38;97045.16;1693386;83;20950;-67
2021/11/30 01:49:53;;;;;;;3.85;2.90;;;;;;;5.02;67.20;97046.91;1682826;83;21515;-68
2021/11/30 01:52:19;;;;;;;3.98;2.95;;;;;;;5.05;67.33;97044.70;1682190;83;21120;-67
2021/11/30 01:54:46;;;;;;;3.98;3.50;;;;;;;5.08;67.48;97046.96;1684535;83;20973;-68
2021/11/30 01:57:15;;;;;;;5.45;3.25;;;;;;;5.13;67.55;97043.73;1701403;83;21473;-67
2021/11/30 01:59:42;;;;;;;3.22;2.92;;;;;;;5.16;67.34;97040.71;1690703;83;21595;-67
2021/11/30 02:02:09;;;;;;;3.08;2.75;;;;;;;5.19;66.88;97049.02;1673990;83;20988;-68
2021/11/30 02:04:36;;;;;;;2.60;2.33;;;;;;;5.17;66.87;97043.64;1681387;83;21116;-67
2021/11/30 02:07:04;;;;;;;2.95;2.25;;;;;;;5.16;66.61;97048.63;1686474;83;20954;-67
2021/11/30 02:09:33;;;;;;;3.15;2.33;;;;;;;5.14;66.46;97054.07;1689107;83;21039;-68
2021/11/30 02:11:59;;;;;;;2.62;2.40;;;;;;;5.07;66.51;97066.91;1692081;83;21010;-67
2021/11/30 02:14:28;;;;;;;3.40;3.00;;;;;;;5.04;66.70;97068.59;1666647;85;21405;-68
2021/11/30 02:16:56;;;;;;;2.58;2.30;;;;;;;5.03;66.55;97070.95;1685534;83;21164;-67
2021/11/30 02:19:23;;;;;;;2.37;2.17;;;;;;;4.99;66.36;97070.50;1681368;83;20938;-68
2021/11/30 02:21:49;;;;;;;4.60;2.30;;;;;;;4.99;66.36;97072.64;1687794;83;20943;-67
2021/11/30 02:24:16;;;;;;;3.90;2.65;;;;;;;5.02;66.32;97075.39;1649016;86;20990;-68
2021/11/30 02:26:42;;;;;;;2.98;2.62;;;;;;;5.02;66.02;97090.39;1682357;83;20956;-68
2021/11/30 02:29:11;;;;;;;2.58;1.92;;;;;;;5.00;65.95;97080.05;1685945;83;22477;-68
2021/11/30 02:31:47;;;;;;;2.20;2.00;;;;;;;5.00;65.95;97095.33;1686611;83;20891;-68
2021/11/30 02:34:16;;;;;;;;;;;;;;;4.97;65.87;97101.02;1672272;85;20958;-67
2021/11/30 02:39:16;;;;;;;3.65;3.00;;;;;;;4.95;66.07;97108.80;1677955;83;21126;-67
2021/11/30 02:41:43;;;;;;;1.92;1.80;;;;;;;5.00;66.14;97104.55;1684048;83;21224;-67
2021/11/30 02:44:14;;;;;;;2.87;2.30;;;;;;;5.04;65.91;97127.89;1674566;85;21533;-67
2021/11/30 02:46:46;;;;;;;2.90;2.27;;;;;;;5.01;65.93;97122.50;1680708;83;20977;-67
2021/11/30 02:49:16;;;;;;;2.15;1.95;;;;;;;4.96;65.95;97136.27;1689906;83;20990;-67
2021/11/30 02:51:47;;;;;;;4.20;2.40;;;;;;;4.97;65.99;97127.86;1676186;83;20990;-67
2021/11/30 02:54:17;;;;;;;2.40;2.20;;;;;;;4.97;66.29;97135.27;1688279;83;21836;-68
2021/11/30 02:56:49;;;;;;;2.15;1.95;;;;;;;5.02;66.29;97135.18;1682846;83;20986;-67
2021/11/30 02:59:16;;;;;;;3.02;1.67;;;;;;;4.99;66.44;97134.56;1676295;85;21438;-67
2021/11/30 03:02:00;;;;;;;1.95;1.80;;;;;;;4.95;66.42;97139.10;1682406;83;21022;-67
2021/11/30 03:04:28;;;;;;;2.60;2.40;;;;;;;4.92;66.41;97139.48;1677124;83;20872;-68
2021/11/30 03:06:55;;;;;;;2.62;2.17;;;;;;;4.92;66.57;97135.03;1681439;83;21161;-68
2021/11/30 03:09:22;;;;;;;2.98;2.20;;;;;;;4.96;66.72;97132.31;1681531;83;21476;-67
2021/11/30 03:11:49;;;;;;;2.40;2.20;;;;;;;4.95;66.50;97141.73;1681077;83;20982;-67
2021/11/30 03:14:16;;;;;;;2.55;2.35;;;;;;;4.96;66.63;97145.98;1682584;83;20919;-68
2021/11/30 03:16:45;;;;;;;2.20;2.00;;;;;;;4.95;66.45;97139.10;1687935;83;20974;-68
2021/11/30 03:19:33;;;;;;;2.17;1.98;;;;;;;4.94;66.48;97144.87;1680755;83;21229;-68
2021/11/30 03:22:01;;;;;;;2.55;1.75;;;;;;;4.94;66.52;97139.59;1641225;86;20927;-68
2021/11/30 03:24:29;;;;;;;2.37;2.05;;;;;;;4.96;66.70;97144.66;1642413;86;21241;-67
2021/11/30 03:26:56;;;;;;;2.30;2.10;;;;;;;4.95;66.96;97143.84;1643970;86;21073;-67
2021/11/30 03:29:22;;;;;;;3.15;2.85;;;;;;;4.97;66.89;97133.13;1640207;87;20951;-67
2021/11/30 03:31:58;;;;;;;3.52;3.22;;;;;;;4.92;67.14;97135.03;1638286;86;21160;-68
2021/11/30 03:34:21;;;;;;;3.80;3.30;;;;;;;4.90;67.39;97130.95;1603827;88;21013;-68
2021/11/30 03:36:51;;;;;;;4.83;4.33;;;;;;;4.91;67.57;97137.84;1638844;86;21010;-67
2021/11/30 03:39:21;;;;;;;4.83;4.30;;;;;;;4.93;67.87;97139.77;1608017;88;21042;-67
2021/11/30 03:41:49;;;;;;;6.62;6.03;;;;;;;4.95;68.15;97130.66;1600980;88;21029;-67
2021/11/30 03:44:16;;;;;;;7.08;6.37;;;;;;;4.96;68.35;97140.70;1646574;86;21099;-68
2021/11/30 03:46:43;;;;;;;6.80;6.17;;;;;;;4.95;69.36;97135.94;1645753;87;21495;-68
2021/11/30 03:49:12;;;;;;;6.50;5.90;;;;;;;4.97;70.66;97144.98;1645451;87;21023;-67
2021/11/30 03:51:40;;;;;;;7.12;6.30;;;;;;;4.95;70.62;97137.25;1644969;86;21004;-68
2021/11/30 03:54:07;;;;;;;7.45;6.70;;;;;;;4.97;69.85;97138.40;1641938;86;20963;-66
2021/11/30 03:56:35;;;;;;;6.75;6.15;;;;;;;4.96;69.64;97143.34;1645827;87;21184;-67
2021/11/30 03:59:02;;;;;;;7.62;6.90;;;;;;;4.98;69.57;97142.64;1605539;88;21435;-67
2021/11/30 04:01:29;;;;;;;6.42;5.90;;;;;;;4.96;69.79;97144.16;1646913;86;20983;-67
2021/11/30 04:03:57;;;;;;;6.15;5.55;;;;;;;4.94;69.70;97151.45;1644654;87;21053;-67
2021/11/30 04:06:24;;;;;;;6.75;6.10;;;;;;;4.90;69.82;97158.09;1642912;86;21024;-67
2021/11/30 04:08:51;;;;;;;6.87;6.17;;;;;;;4.84;69.96;97152.29;1644007;86;21142;-67
2021/11/30 04:11:17;;;;;;;6.95;6.30;;;;;;;4.86;70.10;97156.86;1640293;86;21052;-67
2021/11/30 04:13:44;;;;;;;6.55;5.95;;;;;;;4.86;70.09;97146.81;1646237;87;20880;-67
2021/11/30 04:16:10;;;;;;;6.75;6.12;;;;;;;4.87;70.10;97157.19;1605080;88;21021;-67
2021/11/30 04:18:37;;;;;;;7.10;6.40;;;;;;;4.89;70.19;97165.70;1645202;86;21086;-67
2021/11/30 04:21:04;;;;;;;13.03;6.08;;;;;;;4.83;70.79;97177.48;1643454;86;21180;-67
2021/11/30 04:23:31;;;;;;;6.80;6.10;;;;;;;4.77;71.41;97175.10;1611036;87;20917;-67
2021/11/30 04:25:58;;;;;;;6.92;6.33;;;;;;;4.75;71.79;97169.22;1648781;86;21025;-68
2021/11/30 04:28:26;;;;;;;6.60;5.97;;;;;;;4.72;72.91;97185.39;1651762;86;20989;-67
2021/11/30 04:30:53;;;;;;;6.40;5.25;;;;;;;4.65;74.05;97192.42;1653449;85;21072;-67
2021/11/30 04:33:20;;;;;;;7.08;6.45;;;;;;;4.66;74.66;97192.75;1611408;87;21173;-67
2021/11/30 04:35:46;;;;;;;7.25;6.55;;;;;;;4.61;75.92;97193.82;1646992;86;21076;-68
2021/11/30 04:38:15;;;;;;;6.15;5.55;;;;;;;4.62;77.12;97200.70;1647037;85;21047;-67
2021/11/30 04:40:41;;;;;;;5.78;5.28;;;;;;;4.60;81.25;97203.20;1645370;86;21026;-67
2021/11/30 04:43:08;;;;;;;6.97;6.28;;;;;;;4.59;83.21;97206.34;1648603;85;21084;-67
2021/11/30 04:48:13;;;;;;;6.22;5.70;;;;;;;4.63;82.12;97209.42;1641870;86;21000;-66
2021/11/30 04:50:42;;;;;;;6.37;5.80;;;;;;;4.66;81.28;97212.50;1651242;86;20914;-67
2021/11/30 04:53:09;;;;;;;7.25;6.20;;;;;;;4.64;82.13;97214.48;1651962;86;21529;-67
2021/11/30 04:55:36;;;;;;;6.80;5.40;;;;;;;4.64;80.41;97221.07;1650769;85;21101;-69
2021/11/30 04:58:04;;;;;;;6.60;5.90;;;;;;;4.64;79.32;97218.97;1649720;86;21123;-69
2021/11/30 05:00:35;;;;;;;6.10;5.50;;;;;;;4.64;78.86;97225.02;1652103;86;20970;-69
2021/11/30 05:03:04;;;;;;;6.47;5.65;;;;;;;4.65;78.17;97224.03;1647741;86;21023;-67
2021/11/30 05:05:31;;;;;;;7.17;5.97;;;;;;;4.73;78.08;97245.48;1648635;86;20969;-68
2021/11/30 05:08:00;;;;;;;6.58;5.90;;;;;;;4.71;77.31;97243.05;1646357;86;21023;-68
2021/11/30 05:10:28;;;;;;;6.10;5.37;;;;;;;4.75;77.08;97227.66;1609992;88;21145;-69
2021/11/30 05:12:55;;;;;;;6.40;5.47;;;;;;;4.76;76.95;97240.66;1648854;86;21000;-67
2021/11/30 05:15:22;;;;;;;5.75;5.17;;;;;;;4.77;76.10;97242.27;1609848;88;21023;-67
2021/11/30 05:17:49;;;;;;;5.40;4.90;;;;;;;4.72;74.91;97228.85;1650541;86;20988;-68
2021/11/30 05:20:16;;;;;;;6.03;5.45;;;;;;;4.73;74.70;97242.84;1653423;85;21546;-65
2021/11/30 05:22:44;;;;;;;6.03;5.42;;;;;;;4.74;74.32;97239.22;1657656;85;21170;-69
2021/11/30 05:25:10;;;;;;;5.40;4.87;;;;;;;4.72;73.54;97246.50;1658349;85;21008;-68
2021/11/30 05:27:41;;;;;;;6.97;6.30;;;;;;;4.71;73.21;97250.95;1660246;85;21538;-66
2021/11/30 05:30:13;;;;;;;5.62;5.12;;;;;;;4.71;73.24;97256.22;1627743;86;21006;-67
2021/11/30 05:32:42;;;;;;;5.95;5.35;;;;;;;4.78;72.79;97258.41;1625422;87;20933;-65
2021/11/30 05:35:10;;;;;;;6.10;5.42;;;;;;;4.74;72.36;97265.06;1660669;85;21150;-65
2021/11/30 05:37:36;;;;;;;5.65;5.15;;;;;;;4.74;72.06;97271.66;1658852;85;20932;-64
2021/11/30 05:40:05;;;;;;;6.47;5.03;;;;;;;4.77;71.69;97279.68;1659010;85;22335;-63
2021/11/30 05:42:34;;;;;;;6.17;5.58;;;;;;;4.80;71.24;97283.23;1659262;85;21515;-70
2021/11/30 05:45:00;;;;;;;5.80;5.20;;;;;;;4.82;70.71;97282.05;1659929;85;21031;-67
2021/11/30 05:47:27;;;;;;;6.83;6.03;;;;;;;4.79;70.56;97294.30;1658965;86;21159;-63
2021/11/30 05:49:53;;;;;;;7.12;5.90;;;;;;;4.79;70.43;97290.84;1659453;85;21620;-61
2021/11/30 05:52:20;;;;;;;7.08;6.28;;;;;;;4.74;70.21;97301.13;1661215;85;21033;-65
2021/11/30 05:54:53;;;;;;;6.95;6.33;;;;;;;4.61;70.17;97288.63;1658929;85;20968;-66
2021/11/30 05:57:22;;;;;;;6.25;5.65;;;;;;;4.54;70.45;97302.69;1654905;85;21546;-68
2021/11/30 05:59:48;;;;;;;6.85;5.55;;;;;;;4.48;70.45;97304.27;1658817;85;21871;-67
2021/11/30 06:02:15;;;;;;;7.53;6.30;;;;;;;4.38;70.62;97303.22;1658027;85;21041;-71
2021/11/30 06:04:42;;;;;;;6.65;5.95;;;;;;;4.34;70.69;97305.92;1626709;86;21000;-74
2021/11/30 06:07:09;;;;;;;6.47;5.87;;;;;;;4.28;70.57;97309.27;1619575;87;21118;-67
2021/11/30 06:09:36;;;;;;;6.15;5.55;;;;;;;4.26;70.47;97330.20;1657669;85;21568;-66
2021/11/30 06:12:04;;;;;;;7.45;6.12;;;;;;;4.25;70.29;97323.28;1657004;85;21161;-65
2021/11/30 06:14:31;;;;;;;6.17;5.58;;;;;;;4.25;70.25;97324.61;1595759;89;20955;-65
2021/11/30 06:16:58;;;;;;;9.00;6.70;;;;;;;4.24;70.09;97326.94;1619537;87;21113;-64
2021/11/30 06:19:25;;;;;;;7.80;6.62;;;;;;;4.28;70.11;97335.59;1604390;88;21451;-64
2021/11/30 06:21:52;;;;;;;9.13;7.35;;;;;;;4.31;69.98;97332.60;1604411;88;21449;-63
2021/11/30 06:24:19;;;;;;;8.13;7.33;;;;;;;4.36;70.06;97342.08;1661851;85;22896;-63
2021/11/30 06:26:48;;;;;;;10.03;7.50;;;;;;;4.43;69.94;97332.97;1627406;87;21520;-64
2021/11/30 06:29:14;;;;;;;8.95;7.30;;;;;;;4.48;69.84;97334.55;1606465;88;21131;-64
2021/11/30 06:31:42;;;;;;;8.65;7.25;;;;;;;4.53;69.70;97333.50;1602930;88;20969;-65
2021/11/30 06:34:10;;;;;;;8.93;7.28;;;;;;;4.61;69.59;97343.93;1658557;85;20959;-64
2021/11/30 06:36:38;;;;;;;9.70;8.50;;;;;;;4.61;69.55;97346.56;1658891;85;21334;-65
2021/11/30 06:39:04;;;;;;;14.18;7.95;;;;;;;4.62;69.48;97349.50;1657998;85;20919;-64
2021/11/30 06:41:31;;;;;;;9.73;8.15;;;;;;;4.58;69.44;97352.69;1660741;85;21443;-64
2021/11/30 06:43:57;;;;;;;9.68;8.30;;;;;;;4.56;69.68;97342.84;1658555;85;21026;-64
2021/11/30 06:46:24;;;;;;;8.45;7.62;;;;;;;4.59;69.74;97354.33;1659372;85;20904;-64
2021/11/30 06:48:51;;;;;;;9.18;8.20;;;;;;;4.63;69.70;97356.91;1661317;85;21241;-64
2021/11/30 06:51:17;;;;;;;8.73;7.25;;;;;;;4.63;69.62;97363.48;1658612;85;21024;-64
2021/11/30 06:53:44;;;;;;;8.08;7.28;;;;;;;4.66;69.54;97365.75;1660068;85;21089;-62
2021/11/30 06:56:12;;;;;;;11.50;8.43;;;;;;;4.69;69.57;97372.77;1660642;85;21019;-61
2021/11/30 06:58:39;;;;;;;8.53;7.60;;;;;;;4.68;69.63;97370.33;1658595;85;20995;-65
2021/11/30 07:01:07;;;;;;;8.55;7.55;;;;;;;4.70;69.84;97370.96;1659348;85;21151;-65
2021/11/30 07:03:34;;;;;;;9.95;7.92;;;;;;;4.71;69.90;97380.02;1660398;85;20955;-64
2021/11/30 07:06:20;;;;;;;12.35;8.73;;;;;;;4.76;69.95;97377.64;1658401;85;20974;-67
2021/11/30 07:08:48;;;;;;;10.13;9.10;;;;;;;4.81;69.61;97384.48;1649446;85;20980;-65
2021/11/30 07:11:06;;;;;;;10.50;9.40;;;;;;;4.83;69.41;97381.16;1658006;85;21021;-67
2021/11/30 07:13:35;;;;;;;12.03;9.30;;;;;;;4.83;69.35;97375.89;1658461;85;20935;-66
2021/11/30 07:16:04;;;;;;;10.72;8.45;;;;;;;4.91;69.26;97379.73;1659410;84;21529;-66
2021/11/30 07:18:33;;;;;;;11.90;8.50;;;;;;;5.03;69.37;97378.77;1659651;85;20958;-66
2021/11/30 07:21:00;;;;;;;9.03;7.50;;;;;;;5.10;68.84;97376.19;1659178;85;21017;-66
2021/11/30 07:23:26;;;;;;;10.23;8.35;;;;;;;5.18;68.56;97386.63;1658264;85;20930;-67
2021/11/30 07:25:54;;;;;;;10.23;7.90;;;;;;;5.19;68.20;97385.10;1620523;87;21163;-67
2021/11/30 07:28:29;;;;;;;9.10;7.37;;;;;;;5.21;68.06;97390.20;1589117;89;20940;-68
2021/11/30 07:30:57;;;;;;;7.95;7.15;;;;;;;5.26;68.06;97389.14;1588504;89;21073;-68
2021/11/30 07:33:23;;;;;;;8.58;7.47;;;;;;;5.26;67.65;97389.14;1621174;87;21461;-68
2021/11/30 07:35:51;;;;;;;10.30;8.45;;;;;;;5.21;67.66;97388.89;1587818;89;21067;-68
2021/11/30 07:38:19;;;;;;;17.05;8.38;;;;;;;5.20;67.50;97392.02;1619529;87;21157;-67
2021/11/30 07:40:45;;;;;;;10.18;8.15;;;;;;;5.10;68.76;97395.96;1615801;87;21050;-67
2021/11/30 07:43:12;;;;;;;9.03;7.97;;;;;;;5.16;71.05;97400.50;1617687;87;21490;-68
2021/11/30 07:45:39;;;;;;;9.63;8.20;;;;;;;5.15;71.59;97400.17;1619755;87;21137;-68
2021/11/30 07:48:05;;;;;;;12.07;8.63;;;;;;;5.13;72.42;97397.73;1620842;87;21093;-68
2021/11/30 07:50:32;;;;;;;10.75;8.70;;;;;;;5.14;72.95;97401.16;1601192;88;21236;-66
2021/11/30 07:52:58;;;;;;;8.75;7.85;;;;;;;5.20;73.33;97404.38;1616762;87;20968;-65
2021/11/30 07:55:25;;;;;;;9.78;8.03;;;;;;;5.27;73.77;97397.34;1593469;89;21558;-64
2021/11/30 07:57:51;;;;;;;12.28;8.83;;;;;;;5.37;73.02;97397.89;1621925;87;20905;-66
2021/11/30 08:00:18;;;;;;;9.03;7.80;;;;;;;5.36;72.68;97389.65;1592392;88;21056;-65
2021/11/30 08:02:46;;;;;;;8.30;7.10;;;;;;;5.36;72.83;97390.97;1592300;89;21178;-65
2021/11/30 08:05:13;;;;;;;7.30;6.40;;;;;;;5.40;73.68;97389.58;1592610;88;20992;-66
2021/11/30 08:07:41;;;;;;;7.67;6.60;;;;;;;5.50;73.73;97390.11;1617175;87;21101;-65
2021/11/30 08:10:12;;;;;;;8.38;6.67;;;;;;;5.60;72.66;97393.23;1614582;87;21046;-65
2021/11/30 08:12:39;;;;;;;8.05;7.25;;;;;;;5.65;71.68;97389.53;1593601;89;21542;-64
2021/11/30 08:15:07;;;;;;;8.23;7.20;;;;;;;5.68;70.10;97397.56;1592699;89;21184;-62
2021/11/30 08:17:34;;;;;;;7.60;6.30;;;;;;;5.67;68.73;97398.06;1618851;87;21497;-68
2021/11/30 08:20:05;;;;;;;7.00;6.30;;;;;;;5.69;68.31;97396.54;1620048;87;21065;-66
2021/11/30 08:22:33;;;;;;;7.60;6.60;;;;;;;5.72;67.81;97401.44;1621919;87;20988;-66
2021/11/30 08:25:00;;;;;;;7.67;6.37;;;;;;;5.70;66.66;97398.19;1626383;86;21008;-66
2021/11/30 08:27:27;;;;;;;7.80;6.00;;;;;;;5.71;66.39;97401.15;1625657;87;21171;-65
2021/11/30 08:29:54;;;;;;;6.33;5.72;;;;;;;5.70;65.87;97405.60;1626510;87;21456;-66
2021/11/30 08:32:22;;;;;;;6.60;5.85;;;;;;;5.66;65.73;97406.17;1625811;87;21047;-66
2021/11/30 08:34:53;;;;;;;9.60;6.45;;;;;;;5.69;65.81;97403.95;1660961;85;20987;-64
2021/11/30 08:37:21;;;;;;;6.00;5.40;;;;;;;5.72;65.44;97398.30;1659504;85;20999;-66
2021/11/30 08:39:49;;;;;;;6.87;5.97;;;;;;;5.68;64.76;97401.52;1660818;85;21841;-64
2021/11/30 08:42:17;;;;;;;5.85;5.35;;;;;;;5.58;64.96;97400.50;1659024;84;21027;-63
2021/11/30 08:44:44;;;;;;;6.92;5.70;;;;;;;5.51;64.41;97393.03;1659209;85;20928;-65
2021/11/30 08:47:14;;;;;;;6.25;5.25;;;;;;;5.49;64.77;97399.01;1659633;85;21024;-63
2021/11/30 08:49:41;;;;;;;5.40;4.72;;;;;;;5.57;64.84;97402.84;1662584;85;21058;-66
2021/11/30 08:52:11;;;;;;;8.40;4.87;;;;;;;5.67;64.40;97399.38;1660455;85;21183;-66
2021/11/30 08:54:38;;;;;;;6.53;5.03;;;;;;;5.65;63.97;97396.13;1659955;85;21613;-64
2021/11/30 08:57:05;;;;;;;5.85;5.30;;;;;;;5.61;64.32;97390.39;1658325;85;21053;-65
2021/11/30 09:02:18;;;;;;;6.20;4.83;;;;;;;5.58;64.31;97408.41;1659315;85;21003;-65
2021/11/30 09:04:44;;;;;;;8.33;5.85;;;;;;;5.57;64.34;97402.84;1662211;85;21060;-63
2021/11/30 09:07:11;;;;;;;5.58;4.80;;;;;;;5.56;64.54;97402.02;1661111;85;21080;-63
2021/11/30 09:09:38;;;;;;;9.35;5.25;;;;;;;5.58;64.50;97396.54;1661724;85;20996;-63
2021/11/30 09:12:07;;;;;;;14.23;6.83;;;;;;;5.58;64.25;97402.64;1660417;85;21567;-63
2021/11/30 09:14:34;;;;;;;6.78;4.62;;;;;;;5.67;65.15;97395.42;1661069;85;21321;-64
2021/11/30 09:17:02;;;;;;;7.35;5.30;;;;;;;5.79;64.94;97399.17;1627436;86;21165;-64
2021/11/30 09:19:29;;;;;;;5.53;5.03;;;;;;;5.90;64.23;97391.27;1602941;88;21529;-64
2021/11/30 09:21:56;;;;;;;7.83;4.65;;;;;;;5.95;63.68;97392.34;1660601;85;20970;-65
2021/11/30 09:24:22;;;;;;;7.33;5.40;;;;;;;6.04;63.12;97387.73;1662587;85;21435;-63
2021/11/30 09:26:49;;;;;;;7.62;5.08;;;;;;;6.09;63.11;97388.80;1658612;84;21019;-64
2021/11/30 09:29:16;;;;;;;5.78;4.85;;;;;;;6.08;62.30;97391.11;1660228;85;21175;-65
2021/11/30 09:31:43;;;;;;;7.42;6.42;;;;;;;6.02;62.58;97394.52;1660492;85;21025;-57
2021/11/30 09:34:10;;;;;;;8.18;5.03;;;;;;;5.99;64.26;97398.88;1660161;85;21548;-58
2021/11/30 09:36:39;;;;;;;6.50;5.42;;;;;;;6.01;63.43;97398.18;1628780;86;20984;-66
2021/11/30 09:39:07;;;;;;;7.03;4.87;;;;;;;5.87;63.26;97395.61;1629916;86;21063;-65
2021/11/30 09:41:34;;;;;;;7.25;5.10;;;;;;;5.73;63.11;97392.53;1658075;85;21256;-60
2021/11/30 09:44:01;;;;;;;6.28;4.97;;;;;;;5.68;63.90;97389.66;1660762;85;21529;-58
2021/11/30 09:46:28;;;;;;;8.78;5.08;;;;;;;5.73;63.40;97392.53;1659038;85;21086;-56
2021/11/30 09:48:55;;;;;;;6.03;4.58;;;;;;;5.76;63.12;97393.48;1660006;84;21479;-62
2021/11/30 09:51:24;;;;;;;5.42;4.92;;;;;;;5.76;63.19;97394.80;1658522;84;21485;-63
2021/11/30 09:53:51;;;;;;;5.12;4.58;;;;;;;5.77;62.90;97390.63;1659855;85;21177;-62
2021/11/30 09:56:17;;;;;;;5.05;4.55;;;;;;;5.81;62.89;97385.80;1662139;85;21038;-61
2021/11/30 09:58:47;;;;;;;4.40;4.00;;;;;;;5.88;62.46;97387.52;1659188;85;20921;-60
2021/11/30 10:01:17;;;;;;;5.55;3.75;;;;;;;5.91;62.01;97388.95;1663577;84;20974;-61
2021/11/30 10:03:44;;;;;;;4.50;3.47;;;;;;;5.97;61.70;97378.44;1655943;85;21411;-60
2021/11/30 10:06:11;;;;;;;5.03;3.72;;;;;;;6.05;61.42;97383.58;1660782;85;21145;-61
2021/11/30 10:08:45;;;;;;;5.70;3.55;;;;;;;6.09;60.98;97391.94;1658812;85;21653;-63
2021/11/30 10:11:33;;;;;;;5.28;3.70;;;;;;;6.07;60.52;97388.19;1657213;85;21530;-62
2021/11/30 10:14:16;;;;;;;4.58;3.60;;;;;;;6.15;60.37;97388.54;1660685;85;21533;-59
2021/11/30 10:17:30;;;;;;;2.87;2.58;;;;;;;6.23;61.44;97387.57;1651773;85;21008;-65
2021/11/30 10:20:00;;;;;;;3.50;2.47;;;;;;;6.40;59.76;97379.14;1627167;86;21418;-65
2021/11/30 10:22:56;;;;;;;2.65;2.35;;;;;;;6.42;57.76;97389.00;1627288;86;20984;-63
2021/11/30 10:25:29;;;;;;;3.40;3.10;;;;;;;6.37;56.90;97381.34;1599152;88;20979;-63
2021/11/30 10:28:04;;;;;;;;;;;;;;;6.32;55.49;97377.98;1647392;86;20963;-63
2021/11/30 10:30:34;;;;;;;4.20;2.50;;;;;;;6.19;55.42;97387.95;1658888;85;20150;-61
2021/11/30 10:33:08;;;;;;;3.05;2.55;;;;;;;6.16;55.65;97384.38;1659099;85;21168;-61
2021/11/30 10:35:35;;;;;;;5.58;3.80;;;;;;;6.19;55.24;97391.09;1657225;85;21014;-62
2021/11/30 10:38:03;;;;;;;4.08;3.30;;;;;;;6.10;55.29;97390.94;1658959;85;21017;-61
2021/11/30 10:40:34;;;;;;;3.37;2.90;;;;;;;6.07;55.46;97393.47;1661916;85;21007;-61
2021/11/30 10:43:04;;;;;;;4.30;2.70;;;;;;;6.02;55.48;97393.20;1650630;85;20974;-63
2021/11/30 10:45:47;;;;;;;3.25;2.52;;;;;;;5.98;55.63;97385.36;1620944;87;21121;-63
2021/11/30 10:48:18;;;;;;;4.75;2.33;;;;;;;5.91;54.71;97393.73;1610656;87;20972;-69
2021/11/30 10:50:55;;;;;;;2.77;2.00;;;;;;;5.80;54.66;97394.72;1615188;86;21530;-64
2021/11/30 10:53:25;;;;;;;4.72;2.27;;;;;;;5.74;55.11;97387.05;1616750;87;21120;-63
2021/11/30 10:56:00;;;;;;;2.20;1.90;;;;;;;5.71;55.15;97382.16;1647525;85;21110;-62
2021/11/30 10:58:30;;;;;;;3.37;1.98;;;;;;;5.71;55.00;97386.11;1662630;85;21184;-62
2021/11/30 11:00:59;;;;;;;3.33;2.10;;;;;;;5.69;54.70;97373.62;1627164;86;21076;-62
2021/11/30 11:03:28;;;;;;;3.30;2.25;;;;;;;5.63;55.07;97381.00;1626710;87;21058;-64
2021/11/30 11:08:57;;;;;;;3.60;2.70;;;;;;;5.66;55.94;97387.71;1628484;86;20966;-63
2021/11/30 11:11:35;;;;;;;5.78;3.42;;;;;;;5.64;56.24;97385.24;1604517;88;21043;-63
2021/11/30 11:14:21;;;;;;;4.28;3.50;;;;;;;5.59;56.44;97371.31;1626335;86;20967;-62
2021/11/30 11:16:52;;;;;;;5.30;3.12;;;;;;;5.54;56.85;97367.11;1613024;87;21506;-64
2021/11/30 11:19:39;;;;;;;3.27;2.98;;;;;;;5.53;56.58;97383.11;1606751;87;21551;-62
2021/11/30 11:22:22;;;;;;;3.37;2.70;;;;;;;5.56;56.34;97373.50;1640913;85;21053;-63
2021/11/30 11:24:51;;;;;;;2.95;2.00;;;;;;;5.60;55.71;97368.18;1626691;86;21168;-63
2021/11/30 11:27:39;;;;;;;2.25;1.90;;;;;;;5.58;54.74;97370.16;1623295;87;21012;-62
2021/11/30 11:30:11;;;;;;;2.75;2.05;;;;;;;5.59;54.39;97375.77;1627871;86;20975;-62
2021/11/30 11:32:37;;;;;;;4.28;1.92;;;;;;;5.60;53.84;97378.73;1602518;88;20985;-64
2021/11/30 11:35:06;;;;;;;4.05;2.10;;;;;;;5.55;53.77;97370.57;1660077;85;20979;-60
2021/11/30 11:37:33;;;;;;;3.45;2.95;;;;;;;5.60;53.96;97382.69;1660301;85;21161;-60
2021/11/30 11:40:01;;;;;;;2.15;1.92;;;;;;;5.69;53.50;97377.58;1658920;85;21726;-59
2021/11/30 11:42:28;;;;;;;2.90;2.33;;;;;;;5.70;53.16;97376.58;1658743;85;21086;-61
2021/11/30 11:44:56;;;;;;;4.33;2.92;;;;;;;5.63;53.10;97371.77;1660126;85;20995;-62
2021/11/30 11:47:25;;;;;;;2.30;2.05;;;;;;;5.54;53.37;97369.75;1660739;85;21065;-65
2021/11/30 11:49:54;;;;;;;4.50;2.90;;;;;;;5.50;53.49;97371.11;1660886;85;21169;-64
2021/11/30 11:52:28;;;;;;;3.15;2.83;;;;;;;5.41;53.93;97370.13;1659653;84;20953;-63
2021/11/30 11:55:02;;;;;;;5.10;3.40;;;;;;;5.41;54.62;97374.08;1659084;85;21103;-64
2021/11/30 11:57:30;;;;;;;4.50;3.85;;;;;;;5.46;55.06;97370.38;1644778;85;21516;-63
2021/11/30 12:00:17;;;;;;;6.08;3.67;;;;;;;5.42;55.32;97365.17;1617904;86;21003;-63